Tiempo atmosférico en la estación meteorológica de Lugo Aeropuerto, Lugo (445 m.)



Fecha
DESCASC
Temp. máxima en grados centígrados (hora)
DESCASC
Temp. mínima en grados centígrados (hora)
DESCASC
Temp. media en grados centígrados
DESCASC
Racha de viento máxima en m/sg (hora)
DESCASC
Velocidad máxima media en intervalos de 10 minutos(hora)
DESCASC
Precipitaciones diarias en mm
DESCASC
Precipitaciones de 00:00 a 06:00 en mm
DESCASC
Precipitaciones de 06:00 a 12:00 en mm
DESCASC
Precipitaciones de 12:00 a 18:00 en mm
DESCASC
Precipitaciones de 18:00 a 24:00 en mm
DESCASC
15-11-2018 18 (15:40) 3.1 (07:20) 10.5 3.33 (18:50) 1.39 (18:20) 0.2 0 0 0 0.2
14-11-2018 16.9 (15:50) -0.1 (07:40) 8.4 3.06 (22:10) 1.67 (18:10) 0 0 0 0 0
13-11-2018 9 (16:50) 2.4 (02:50) 5.7 2.5 (10:30) 1.67 (10:30) 0 0 0 0 0
12-11-2018 14.5 (15:30) 3.5 (08:50) 9 5.28 (11:10) 3.33 (12:10) 0 0 0 0 0
11-11-2018 12 (07:50) 8.4 (00:00) 10.2 10 (07:20) 4.72 (09:00) 11.8 9.8 0.8 0 1.2
10-11-2018 14.2 (15:30) 10.3 (00:00) 12.3 14.44 (14:10) 8.61 (13:50) 9.8 5 0.2 3 1.6
09-11-2018 13.3 (23:40) 6.1 (00:00) 9.7 13.06 (15:20) 5.83 (23:20) 13.8 0 0 1.6 12.2
08-11-2018 11.5 (11:30) 5.3 (00:00) 8.4 12.22 (12:10) 4.72 (13:40) 4.6 0 0 2.8 1.8
07-11-2018 13 (16:00) 6.4 (00:00) 9.7 11.11 (04:20) 6.11 (13:10) 5.4 4.6 0.8 0 0
06-11-2018 11.4 (15:30) 6.3 (00:00) 8.8 13.33 (19:10) 5.28 (15:30) 12.4 0 0.6 2.4 9.4
05-11-2018 9.5 (14:50) 6.3 (00:00) 7.9 7.5 (15:00) 3.61 (19:30) 22.8 2.6 14.4 3.8 2
04-11-2018 13.1 (14:50) 9.3 (00:00) 11.2 9.44 (21:20) 4.17 (21:00) 9 0 1.4 2 5.6
03-11-2018 13.7 (16:10) 8.6 (00:00) 11.2 3.89 (09:40) 1.67 (09:30) 0 0 0 0 0
02-11-2018 18.6 (16:10) 10.8 (00:00) 14.7 6.11 (00:10) 2.78 (01:10) 0.6 0.4 0.2 0 0
01-11-2018 11.5 (14:50) 6.6 (00:00) 9 9.44 (20:50) 3.89 (15:30) 2.6 0.6 0 0.2 1.8
31-10-2018 13.7 (14:10) 5.9 (00:00) 9.8 5.83 (10:30) 2.78 (10:30) 1.6 1.6 0 0 0
30-10-2018 9.8 (13:50) 5.3 (00:00) 7.6 10 (00:10) 3.89 (00:20) 6.4 3.2 1.8 1.4 0
29-10-2018 9.2 (14:00) 2.4 (00:00) 5.8 8.06 (22:30) 4.44 (17:00) 11 5.6 0.8 1.8 2.8
28-10-2018 6.6 (14:20) 1.9 (00:00) 4.2 9.17 (14:20) 5.28 (14:40) 32.6 8.6 7.8 6.4 9.8
27-10-2018 10 (00:00) 3.6 (00:00) 6.8 8.61 (13:50) 3.89 (17:40) 13 0.2 2.4 4.4 6
26-10-2018 15.9 (15:00) 6.8 (00:00) 11.3 10.28 (14:10) 5 (14:30) 0 0 0 0 0
25-10-2018 21.6 (16:30) 5.1 (00:00) 13.4 2.78 (15:40) 1.39 (02:50) 0 0 0 0 0
24-10-2018 21.1 (16:50) 8.5 (00:00) 14.8 5 (04:00) 2.5 (03:10) 0 0 0 0 0
23-10-2018 19.5 (15:40) 8.9 (00:00) 14.2 9.72 (00:30) 5.56 (00:30) 0 0 0 0 0
22-10-2018 18.9 (14:40) 11.6 (00:00) 15.3 13.06 (21:10) 6.94 (21:20) 0 0 0 0 0
21-10-2018 21.8 (15:00) 8.1 (00:00) 14.9 8.61 (20:40) 3.33 (19:30) 0 0 0 0 0
20-10-2018 20 (14:50) 8.6 (00:00) 14.3 9.17 (12:30) 4.72 (03:00) 0 0 0 0 0
19-10-2018 19 (14:40) 10.1 (00:00) 14.6 11.67 (18:20) 5.83 (13:20) 0 0 0 0 0
18-10-2018 17.1 (15:50) 11.5 (00:00) 14.3 13.61 (14:20) 5 (14:40) 1.2 1 0.2 0 0

Gráficas

Temp. máximas Temp. mínimas Temp. medias Precipitaciones Rachas de viento máximas Velocidades máximas media en intervalos de 10 minutos

Datos horarios

Fecha y hora oficial Temperatura (ºC) Velocidad del viento (km/h) Dirección del viento Racha (km/h) Dirección de racha Precipitación (mm) Presión (hPa) Tendencia (hPa) Humedad (%)
2018-11-16 23:00:00 10.3 3 Sudeste 6 Sur 0 962.6 -0.2 84
2018-11-16 22:00:00 12.4 3 Noroeste 13 Sur 0 963 0.1 76
2018-11-16 21:00:00 14 6 Sur 16 Sur 0 962.8 0.1 70
2018-11-16 20:00:00 14.5 6 Sur 21 Sur 0 962.8 0.2 68
2018-11-16 19:00:00 15.1 8 Sur 19 Sur 0 962.9 0.1 67
2018-11-16 18:00:00 16.9 6 Sur 13 Sur 0 962.7 -0.6 62
2018-11-16 17:00:00 19.2 6 Sur 18 Sudeste 0 962.6 -1.6 52
2018-11-16 16:00:00 20.4 5 Sur 16 Sur 0 962.8 -2.4 50
2018-11-16 15:00:00 19.3 3 Norte 9 Norte 0 963.3 -2.8 66
2018-11-16 14:00:00 17.2 4 Norte 9 Noroeste 0 964.2 -2.1 74
2018-11-16 13:00:00 13.9 4 Este 8 Este 0 965.2 -1.1 86
2018-11-16 12:00:00 10.1 3 Noroeste 6 Nordeste 0 966.1 -0.2 96
2018-11-16 11:00:00 7 0 Calma 5 Noroeste 0 966.3 0.6 98
2018-11-16 10:00:00 4.9 0 Calma 5 Sudeste 0 966.3 0.8 98
2018-11-16 09:00:00 3.8 0 Calma 5 Noroeste 0 966.3 1 97
2018-11-16 08:00:00 4.4 0 Calma 6 Sudeste 0 965.7 0.1 95
2018-11-16 07:00:00 5 0 Calma 4 Sudoeste 0 965.5 -0.1 97
2018-11-16 06:00:00 5.3 2 Sudoeste 4 Sudoeste 0 965.3 -0.5 98
2018-11-16 05:00:00 5 0 Calma 4 Sur 0 965.6 -0.7 96
2018-11-16 04:00:00 5.5 0 Calma 4 Noroeste 0 965.6 -0.5 95
2018-11-16 03:00:00 6.5 0 Calma 6 Sudeste 0 965.8 0.1 95
2018-11-16 02:00:00 7.2 3 Sudeste 4 Sudeste 0 966.3 0.5 98
2018-11-16 01:00:00 7 2 Este 4 Este 0 966.1 0 97
2018-11-16 00:00:00 7.4 0 Calma 4 Norte 0 965.7 -0.7 95
2018-11-15 23:00:00 8.7 2 Norte 7 Sudeste 0 965.8 -0.5 93
2018-11-15 22:00:00 10.3 4 Sudeste 8 Sudeste 0 966.1 0.2 93
2018-11-15 21:00:00 11.6 5 Sudeste 8 Sudeste 0 966.4 1.1 93
2018-11-15 20:00:00 13.1 0 Calma 5 Sur 0.2 966.3 1.7 91
2018-11-15 19:00:00 13.8 5 Oeste 12 Sudoeste 0 965.9 1.5 90
2018-11-15 18:00:00 15.4 4 Sudeste 7 Sudeste 0 965.3 0.8 82
2018-11-15 17:00:00 17.5 0 Calma 6 Norte 0 964.6 -0.4 73
2018-11-15 16:00:00 17.7 3 Norte 10 Norte 0 964.4 -1.3 71
2018-11-15 15:00:00 16.8 3 Norte 7 Norte 0 964.5 -1.5 73
2018-11-15 14:00:00 13.5 4 Este 8 Nordeste 0 965 -0.5 83
2018-11-15 13:00:00 10.5 3 Nordeste 9 Noroeste 0 965.7 0.1 94
2018-11-15 12:00:00 9.9 2 Noroeste 6 Noroeste 0 966 0.7 97
2018-11-15 11:00:00 7.2 0 Calma 5 Nordeste 0 965.5 0.9 99
2018-11-15 10:00:00 5.2 3 Nordeste 6 Noroeste 0 965.6 1.4 98
2018-11-15 09:00:00 4.5 3 Noroeste 8 Sudeste 0 965.3 1.5 97
2018-11-15 08:00:00 3.5 3 Sudeste 7 Sudoeste 0 964.6 1.1 96
2018-11-15 07:00:00 3.3 0 Calma 7 Sudeste 0 964.2 0.7 97
2018-11-15 06:00:00 3.4 3 Sur 5 Sudeste 0 963.8 0.1 97
2018-11-15 05:00:00 3.8 2 Oeste 6 Sudeste 0 963.5 -0.1 96
2018-11-15 04:00:00 4 2 Sudoeste 5 Sur 0 963.5 -0.5 95
2018-11-15 03:00:00 4.4 2 Sudeste 4 Sudeste 0 963.7 -0.5 95
2018-11-15 02:00:00 5 0 Calma 7 Sur 0 963.6 -1.1 95
2018-11-15 01:00:00 5.7 4 Sur 6 Sur 0 964 -1 95
2018-11-15 00:00:00 6.3 2 Sudeste 4 Sudeste 0 964.2 -0.9 96
2018-11-14 23:00:00 6.8 0 Calma 11 Sur 0 964.7 -0.7 93
2018-11-14 22:00:00 7.6 4 Sudeste 7 Sur 0 965 -0.4 95
2018-11-14 21:00:00 8.9 0 Calma 7 Sudeste 0 965.1 -0.4 92
2018-11-14 20:00:00 9.8 3 Sudeste 8 Sudeste 0 965.4 -0.1 93
2018-11-14 19:00:00 11.5 2 Este 9 Sudeste 0 965.4 -0.3 91
2018-11-14 18:00:00 14.5 3 Sudeste 5 Sudeste 0 965.5 -0.7 80
2018-11-14 17:00:00 16.6 0 Calma 5 Norte 0 965.5 -1.5 73
2018-11-14 16:00:00 16.8 3 Norte 8 Noroeste 0 965.7 -2 71
2018-11-14 15:00:00 16 2 Norte 9 Norte 0 966.2 -2.5 73
2018-11-14 14:00:00 14 3 Norte 6 Este 0 967 -2.1 78
2018-11-14 13:00:00 10.6 3 Noroeste 5 Este 0 967.7 -1.6 86
2018-11-14 12:00:00 6.7 2 Este 5 Norte 0 968.7 -0.3 94
2018-11-14 11:00:00 3.5 0 Calma 4 Noroeste 0 969.1 0.3 97
2018-11-14 10:00:00 1.4 0 Calma 4 Nordeste 0 969.3 0.5 96
2018-11-14 09:00:00 0 0 Calma 3 Este 0 969 -0.2 97
2018-11-14 08:00:00 0.3 0 Calma 4 Oeste 0 968.8 -0.6 96
2018-11-14 07:00:00 0 0 Calma 3 Oeste 0 968.8 -1 95
2018-11-14 06:00:00 0.3 2 Sudeste 3 Sudeste 0 969.2 -1.2 95
2018-11-14 05:00:00 0.9 0 Calma 2 Norte 0 969.4 -1.4 96
2018-11-14 04:00:00 1.2 0 Calma 4 Sudeste 0 969.8 -1.5 97
2018-11-14 03:00:00 1.6 0 Calma 3 Sudeste 0 970.4 -1.4 97
2018-11-14 02:00:00 1.6 0 Calma 3 Noroeste 0 970.8 -1.3 95
2018-11-14 01:00:00 2 0 Calma 4 Sur 0 971.3 -0.8 94
2018-11-14 00:00:00 2.7 2 Este 4 Sudeste 0 971.8 -0.4 96
2018-11-13 23:00:00 3.9 2 Oeste 4 Oeste 0 972.1 0 95
2018-11-13 22:00:00 4.6 2 Sudeste 6 Sudeste 0 972.1 0.2 97
2018-11-13 21:00:00 4.9 0 Calma 4 Norte 0 972.2 0.2 97
2018-11-13 20:00:00 5.3 0 Calma 4 Oeste 0 972.1 -0.1 94
2018-11-13 19:00:00 6.3 0 Calma 5 Sudeste 0 971.9 -0.3 96
2018-11-13 18:00:00 7.4 2 Noroeste 5 Norte 0 972 -0.7 95
2018-11-13 17:00:00 8.5 3 Norte 6 Norte 0 972.2 -0.8 90
2018-11-13 16:00:00 8 3 Este 7 Este 0 972.2 -1.2 93
2018-11-13 15:00:00 7 3 Este 6 Nordeste 0 972.7 -1.5 94
2018-11-13 14:00:00 6.8 3 Oeste 9 Noroeste 0 973 -1.4 94
2018-11-13 13:00:00 6.5 3 Noroeste 8 Oeste 0 973.4 -0.6 97
2018-11-13 12:00:00 5 2 Oeste 8 Oeste 0 974.2 0.5 98
2018-11-13 11:00:00 3.3 2 Sudoeste 9 Oeste 0 974.4 1.4 98
2018-11-13 10:00:00 3.2 3 Este 6 Sudeste 0 974 1.5 99
2018-11-13 09:00:00 3.2 3 Este 7 Sudeste 0 973.7 1 98
2018-11-13 08:00:00 3.2 2 Sur 8 Oeste 0 973 0.6 99
2018-11-13 07:00:00 3.2 3 Sudoeste 7 Norte 0 972.5 0.3 98
2018-11-13 06:00:00 3.7 3 Sudoeste 6 Oeste 0 972.7 0.9 97
2018-11-13 05:00:00 4.1 2 Oeste 4 Oeste 0 972.4 1.3 98
2018-11-13 04:00:00 3.7 2 Sudeste 4 Sur 0 972.2 1.1 99
2018-11-13 03:00:00 2.5 2 Sudoeste 4 Sur 0 971.8 1 97
2018-11-13 02:00:00 3.4 0 Calma 4 Sudeste 0 971.1 0.5 91
2018-11-13 01:00:00 4.2 0 Calma 7 Sur 0 971.1 1 95
2018-11-13 00:00:00 4.9 3 Sur 11 Sudeste 0 970.8 1.2 93
2018-11-12 23:00:00 5.8 5 Sudeste 9 Sudeste 0 970.6 1.9 93
2018-11-12 22:00:00 6.8 3 Sur 6 Sur 0 970.1 2.5 93
2018-11-12 21:00:00 6.5 3 Sudeste 8 Sudeste 0 969.6 2.9 94
2018-11-12 20:00:00 6.4 5 Sudeste 9 Sur 0 968.7 2.7 90
2018-11-12 19:00:00 8.2 3 Sur 6 Sudeste 0 967.6 2.2 85
2018-11-12 18:00:00 11.4 0 Calma 10 Oeste 0 966.7 1.8 76
2018-11-12 17:00:00 13.7 7 Oeste 13 Oeste 0 966 1.1 57
2018-11-12 16:00:00 14.1 10 Oeste 17 Sudoeste 0 965.4 0.6 58
2018-11-12 15:00:00 13.7 6 Oeste 17 Oeste 0 964.9 0 63
2018-11-12 14:00:00 13.8 6 Sudoeste 15 Sudoeste 0 964.9 0.3 62
2018-11-12 13:00:00 13.2 6 Oeste 18 Oeste 0 964.8 0.9 66
2018-11-12 12:00:00 12 10 Oeste 19 Sudoeste 0 964.9 2.1 76
2018-11-12 11:00:00 10.6 8 Sudoeste 18 Sudoeste 0 964.6 3 77
2018-11-12 10:00:00 8.8 6 Sur 15 Sur 0 963.9 2 87
2018-11-12 09:00:00 3.7 2 Norte 6 Nordeste 0 962.8 1.5 97
2018-11-12 08:00:00 4.6 3 Sudoeste 8 Sur 0 961.6 1 95
2018-11-12 07:00:00 5.6 4 Sudoeste 12 Sur 0 961.9 2 96
2018-11-12 06:00:00 5.8 3 Sur 11 Sur 0 961.3 2.2 93
2018-11-12 05:00:00 6.1 5 Sudoeste 12 Sudoeste 0 960.6 2 93
2018-11-12 04:00:00 6.5 4 Sudoeste 10 Sur 0 959.9 1.6 93
2018-11-12 03:00:00 7.3 3 Sudoeste 12 Sur 0 959.1 1 91
2018-11-12 02:00:00 7.7 6 Sur 14 Sur 0 958.6 1.2 93
2018-11-12 01:00:00 8.3 6 Sudoeste 14 Sudoeste 0 958.3 0.8 91
2018-11-12 00:00:00 8.5 4 Sur 10 Sur 0 958.1 0.9 92
2018-11-11 23:00:00 8.5 2 Sudoeste 13 Sur 0 957.4 0.4 92
2018-11-11 22:00:00 8.4 5 Sudoeste 12 Oeste 0 957.5 0.9 92
2018-11-11 21:00:00 8.7 3 Sur 13 Sudoeste 0.6 957.2 1 93
2018-11-11 20:00:00 9.1 2 Sudoeste 9 Oeste 0.2 957 0.8 94
2018-11-11 19:00:00 9.6 4 Sur 10 Sur 0.4 956.6 0.7 89
2018-11-11 18:00:00 10.1 4 Sudoeste 17 Sudoeste 0 956.2 0.8 85
2018-11-11 17:00:00 10.7 4 Sur 13 Sudoeste 0 956.2 0 90
2018-11-11 16:00:00 11 5 Sudoeste 10 Sudoeste 0 955.9 -1.2 89
2018-11-11 15:00:00 11.3 0 Calma 7 Sur 0 955.4 -1.6 88
2018-11-11 14:00:00 11 4 Sudoeste 14 Sudoeste 0 956.2 -0.5 84
2018-11-11 13:00:00 11.2 6 Sudoeste 14 Sudoeste 0 957.1 1.5 86
2018-11-11 12:00:00 11.7 10 Sudoeste 23 Sudoeste 0 957 1.7 82
2018-11-11 11:00:00 11.8 14 Oeste 24 Sudoeste 0 956.7 2.1 87
2018-11-11 10:00:00 11.7 9 Sudoeste 25 Oeste 0 955.6 1.7 89
2018-11-11 09:00:00 11.8 17 Oeste 31 Oeste 0.4 955.3 1.5 89
2018-11-11 08:00:00 11.9 12 Sudoeste 36 Sudoeste 0 954.6 1.4 94
2018-11-11 07:00:00 11.5 13 Sudoeste 31 Sudoeste 0.4 953.9 0.3 94
2018-11-11 06:00:00 11.2 15 Sudoeste 33 Sudoeste 6 953.8 -0.3 95
2018-11-11 05:00:00 11.2 12 Sudoeste 27 Sudoeste 2.4 953.2 -1.6 93
2018-11-11 04:00:00 11.5 13 Sudoeste 35 Sudoeste 0.6 953.6 -1.8 91
2018-11-11 03:00:00 11.5 13 Sudoeste 30 Sur 0 954.1 -1.8 89
2018-11-11 02:00:00 11.1 8 Sur 32 Sudoeste 0 954.8 -1.1 92
2018-11-11 01:00:00 10.9 12 Sudoeste 31 Sudoeste 0.8 955.4 -0.4 93
2018-11-11 00:00:00 11.1 14 Sudoeste 31 Sudoeste 1.4 955.9 0 93
2018-11-10 23:00:00 12 12 Sudoeste 28 Sudoeste 0 955.9 -0.1 83
2018-11-10 22:00:00 11.6 9 Sudoeste 27 Sudoeste 0 955.8 -0.3 84
2018-11-10 21:00:00 11.5 12 Sudoeste 31 Sudoeste 0 955.9 0 85
2018-11-10 20:00:00 11.1 11 Sudoeste 28 Sudoeste 0.2 956 0.3 88
2018-11-10 19:00:00 12.1 13 Sudoeste 32 Sudoeste 0 956.1 1 76
2018-11-10 18:00:00 12.3 19 Sudoeste 46 Sudoeste 0 955.9 0.8 72
2018-11-10 17:00:00 13.1 20 Sudoeste 52 Sudoeste 0 955.7 0.7 71
2018-11-10 16:00:00 13.2 17 Sudoeste 42 Sudoeste 0 955.1 0.3 75
2018-11-10 15:00:00 13.6 26 Sudoeste 52 Sudoeste 0 955.1 0.8 75
2018-11-10 14:00:00 13.6 27 Sudoeste 50 Sudoeste 0 955 0 79
2018-11-10 13:00:00 11.4 13 Sudoeste 24 Oeste 3 954.8 -0.7 94
2018-11-10 12:00:00 11.3 8 Sudoeste 25 Sudoeste 0.2 954.3 -1.2 90
2018-11-10 11:00:00 11.7 11 Sur 32 Sur 0 955 -0.8 83
2018-11-10 10:00:00 11.2 12 Sudoeste 28 Sudoeste 0 955.5 -0.2 82
2018-11-10 09:00:00 10.9 11 Sudoeste 25 Sudoeste 0 955.5 0.9 79
2018-11-10 08:00:00 10.5 12 Sudoeste 32 Sudoeste 0 955.8 1.9 85
2018-11-10 07:00:00 11.2 13 Sudoeste 34 Oeste 0 955.7 1.9 80
2018-11-10 06:00:00 12.2 17 Sudoeste 28 Sudoeste 0 954.6 0.3 87
2018-11-10 05:00:00 11.9 11 Sudoeste 34 Sudoeste 0 953.9 -0.8 88
2018-11-10 04:00:00 12.6 17 Sudoeste 33 Sudoeste 0 953.8 -0.2 88
2018-11-10 03:00:00 12.5 8 Oeste 34 Oeste 0 954.3 -0.1 95
2018-11-10 02:00:00 13.1 15 Oeste 40 Sur 3.6 954.7 0.2 96
2018-11-10 01:00:00 13.1 17 Sudoeste 43 Sudoeste 1.4 954 -1.3 96
2018-11-10 00:00:00 13.2 19 Sudoeste 45 Sudoeste 2.6 954.4 -1.3 95
2018-11-09 23:00:00 13.2 19 Sudoeste 46 Sudoeste 2.8 954.5 -2.1 94
2018-11-09 22:00:00 13.1 18 Sudoeste 40 Sur 1.8 955.3 -2.2 94
2018-11-09 21:00:00 12.9 18 Sudoeste 43 Sur 3.2 955.7 -1.8 94
2018-11-09 20:00:00 12.3 13 Sur 41 Sudeste 0.8 956.6 -1.5 94
2018-11-09 19:00:00 11.9 16 Sudoeste 40 Sudoeste 1 957.5 -0.9 94
2018-11-09 18:00:00 11.3 15 Sudoeste 45 Sur 0.4 957.5 -1.6 93
2018-11-09 17:00:00 11.1 17 Sudoeste 38 Sudoeste 0.8 958.1 -1.9 93
2018-11-09 16:00:00 11 18 Sudoeste 47 Sudoeste 0.2 958.4 -2.4 92
2018-11-09 15:00:00 10.5 17 Sudoeste 46 Sur 0 959.1 -3 90
2018-11-09 14:00:00 10.9 17 Sudoeste 44 Sur 0 960 -2.8 84
2018-11-09 13:00:00 10.9 16 Sudoeste 39 Sudoeste 0.2 960.8 -2.3 79
2018-11-09 12:00:00 9.8 16 Sudoeste 39 Sudoeste 0 962.1 -1.7 79
2018-11-09 11:00:00 9.2 14 Sudoeste 33 Sudoeste 0 962.8 -0.9 81
2018-11-09 10:00:00 8.5 14 Sur 34 Sur 0 963.1 -1.2 82
2018-11-09 09:00:00 7.3 9 Sur 32 Sur 0 963.8 -0.6 88
2018-11-09 08:00:00 6.8 12 Sur 30 Sur 0 963.7 -0.5 91
2018-11-09 07:00:00 6.3 9 Sur 23 Sudoeste 0 964.3 -0.1 94
2018-11-09 06:00:00 6.2 8 Sudoeste 24 Sur 0 964.4 0.1 92
2018-11-09 05:00:00 6.4 5 Sudoeste 23 Sur 0 964.2 0.1 92
2018-11-09 04:00:00 6.6 8 Sudoeste 18 Sudoeste 0 964.4 0.7 93
2018-11-09 03:00:00 6.3 7 Sudoeste 19 Sudoeste 0 964.3 1.2 94
2018-11-09 02:00:00 6.6 8 Sudoeste 19 Sudoeste 0 964.1 1.5 95
2018-11-09 01:00:00 7 8 Sudoeste 20 Sudoeste 0 963.7 2.2 95
2018-11-09 00:00:00 7 9 Sudoeste 18 Sudoeste 0 963.1 2.7 94
2018-11-08 23:00:00 7.1 10 Sudoeste 21 Oeste 0 962.6 3.2 94
2018-11-08 22:00:00 7 7 Sudoeste 25 Sudoeste 1.2 961.5 3.3 95
2018-11-08 21:00:00 7.1 12 Sudoeste 25 Sudoeste 0.6 960.4 2.6 94
2018-11-08 20:00:00 7.2 9 Sudoeste 19 Sudeste 0 959.4 1.7 92
2018-11-08 19:00:00 7.1 6 Sur 23 Sur 0 958.2 1.5 91
2018-11-08 18:00:00 7.7 7 Sur 19 Sudoeste 0.4 957.8 1.4 91
2018-11-08 17:00:00 7.8 12 Sudoeste 23 Sudoeste 0.4 957.7 1.8 91
2018-11-08 16:00:00 8.1 10 Sur 30 Sur 1 956.7 0.2 89
2018-11-08 15:00:00 9.6 12 Sudoeste 36 Sur 0 956.4 -0.3 82
2018-11-08 14:00:00 9.1 14 Sur 40 Sur 0.4 955.9 -0.9 85
2018-11-08 13:00:00 9.7 14 Sudoeste 44 Sur 0.6 956.5 -1 86
2018-11-08 12:00:00 11.1 13 Sudoeste 38 Sur 0 956.7 -1.1 69
2018-11-08 11:00:00 10 13 Sur 34 Sur 0 956.8 -1.6 70
2018-11-08 10:00:00 9.9 9 Sur 31 Sudoeste 0 957.5 -1.5 70
2018-11-08 09:00:00 8.9 10 Sur 25 Sudoeste 0 957.8 -2.1 70
2018-11-08 08:00:00 8.1 7 Sur 26 Sur 0 958.4 -2 71
2018-11-08 07:00:00 7.4 8 Sur 23 Sur 0 959 -1.9 72
2018-11-08 06:00:00 7.4 10 Sur 25 Sudeste 0 959.9 -1.4 75
2018-11-08 05:00:00 7.2 8 Sur 22 Sur 0 960.4 -2 75
2018-11-08 04:00:00 6.8 8 Sur 23 Sur 0 960.9 -2.1 75
2018-11-08 03:00:00 5.8 3 Sudeste 11 Sur 0 961.3 -2.3 82
2018-11-08 02:00:00 6.7 5 Sur 18 Sudeste 0 962.4 -1.5 80
2018-11-08 01:00:00 7.3 9 Sur 21 Sudeste 0 963 -0.8 79
2018-11-08 00:00:00 7.4 7 Sur 24 Sur 0 963.6 -0.4 81
2018-11-07 23:00:00 6.6 6 Sur 16 Sur 0 963.9 0.5 88
2018-11-07 22:00:00 6.6 4 Sur 13 Sudeste 0 963.8 0.6 88
2018-11-07 21:00:00 6.7 4 Sur 10 Sur 0 964 1.2 89
2018-11-07 20:00:00 7 4 Sur 10 Sur 0 963.4 1.1 86
2018-11-07 19:00:00 8 5 Sur 10 Sur 0 963.2 1.2 82
2018-11-07 18:00:00 10.2 4 Sudoeste 23 Sudoeste 0 962.8 0.9 71
2018-11-07 17:00:00 11.8 14 Sudoeste 31 Sudoeste 0 962.3 0.4 62
2018-11-07 16:00:00 12.8 15 Oeste 29 Oeste 0 962 0.4 60
2018-11-07 15:00:00 12.6 21 Oeste 31 Sudoeste 0 961.9 0.7 60
2018-11-07 14:00:00 12.4 18 Sudoeste 37 Oeste 0 961.9 1.7 64
2018-11-07 13:00:00 10.9 17 Oeste 32 Sudoeste 0 961.6 2.5 69
2018-11-07 12:00:00 9.9 15 Oeste 31 Sudoeste 0 961.2 3.6 79
2018-11-07 11:00:00 9.6 11 Oeste 27 Sudoeste 0.4 960.2 3.9 79
2018-11-07 10:00:00 8.2 13 Oeste 28 Oeste 0 959.1 4.2 90
2018-11-07 09:00:00 7.3 14 Sudoeste 33 Sudoeste 0 957.6 3.7 92
2018-11-07 08:00:00 7.1 13 Sudoeste 31 Sudoeste 0 956.3 3.6 89
2018-11-07 07:00:00 7.8 19 Sudoeste 34 Oeste 0.4 954.9 2.7 87
2018-11-07 06:00:00 8.3 12 Sudoeste 28 Oeste 0 953.9 2.2 91
2018-11-07 05:00:00 8 17 Sudoeste 40 Oeste 1.8 952.7 1.3 92
2018-11-07 04:00:00 8.8 12 Oeste 36 Oeste 2.2 952.2 1.2 93
2018-11-07 03:00:00 10 17 Sudoeste 38 Sur 0.6 951.7 1.4 87
2018-11-07 02:00:00 10.4 15 Sudoeste 37 Sudoeste 0 951.4 1.8 85
2018-11-07 01:00:00 10.7 17 Sudoeste 39 Sudoeste 0 951 1.8 86
2018-11-07 00:00:00 10.9 15 Sudoeste 33 Sudoeste 0 950.3 2.5 90
2018-11-06 23:00:00 10.8 16 Sudoeste 40 Sudoeste 3.2 949.6 0.7 93
2018-11-06 22:00:00 11 17 Sudoeste 44 Sur 3 949.2 0.5 94
2018-11-06 21:00:00 11.1 17 Sur 46 Sudoeste 0.8 947.8 -2.8 92
2018-11-06 20:00:00 11 16 Sur 48 Sur 1.2 948.9 -2.1 92
2018-11-06 19:00:00 11.1 17 Sur 44 Sur 1.2 948.7 -2.9 90
2018-11-06 18:00:00 11 15 Sudoeste 38 Sur 1.4 950.6 -1.5 92
2018-11-06 17:00:00 11.2 19 Sudoeste 44 Sudoeste 0.4 951 -2 90
2018-11-06 16:00:00 11 16 Sudoeste 41 Sudoeste 0 951.6 -1.9 91
2018-11-06 15:00:00 11.1 15 Sudoeste 40 Sur 0.2 952.1 -2.4 89
2018-11-06 14:00:00 10.7 15 Sur 37 Sudoeste 0 953 -2.1 89
2018-11-06 13:00:00 10.6 16 Sur 36 Sur 0.4 953.5 -1.4 88
2018-11-06 12:00:00 9.6 12 Sur 39 Sudoeste 0.2 954.5 -0.5 90
2018-11-06 11:00:00 9.3 15 Sudoeste 33 Sur 0 955.1 -0.3 87
2018-11-06 10:00:00 8.8 13 Sudoeste 37 Sudoeste 0 954.9 -0.7 89
2018-11-06 09:00:00 8 11 Sur 32 Sur 0.4 955 -1 92
2018-11-06 08:00:00 7.7 11 Sur 33 Sudoeste 0 955.4 -0.7 93
2018-11-06 07:00:00 7.6 10 Sur 30 Sur 0 955.6 -0.7 91
2018-11-06 06:00:00 7.4 10 Sudoeste 25 Sur 0 956 -0.5 89
2018-11-06 05:00:00 7.3 8 Sudoeste 21 Sur 0 956.1 -0.3 93
2018-11-06 04:00:00 7.1 9 Sudoeste 21 Sudoeste 0 956.3 -0.4 93
2018-11-06 03:00:00 6.9 8 Sudoeste 20 Sur 0 956.5 0 92
2018-11-06 02:00:00 6.4 8 Sudoeste 18 Sudoeste 0 956.4 0 94
2018-11-06 01:00:00 6.8 8 Sudoeste 19 Sudoeste 0 956.7 0.8 93
2018-11-06 00:00:00 6.3 12 Sudoeste 21 Sudoeste 0 956.5 1.2 94
2018-11-05 23:00:00 7.1 11 Sudoeste 19 Sudoeste 0 956.4 1.9 92
2018-11-05 22:00:00 7.7 5 Sudoeste 20 Oeste 0 955.9 1.9 93
2018-11-05 21:00:00 7.8 9 Oeste 19 Oeste 1 955.3 2.2 96
2018-11-05 20:00:00 7.9 10 Oeste 23 Oeste 0.8 954.5 2 95
2018-11-05 19:00:00 8.4 9 Oeste 23 Oeste 0.2 954 2.1 94
2018-11-05 18:00:00 8.7 10 Oeste 23 Oeste 0 953.1 1.5 92
2018-11-05 17:00:00 9.2 9 Oeste 20 Oeste 0.2 952.5 1.3 89
2018-11-05 16:00:00 9 7 Oeste 20 Sudoeste 1 951.9 0.8 93
2018-11-05 15:00:00 9.3 9 Oeste 27 Sudoeste 0 951.6 0.9 90
2018-11-05 14:00:00 8.8 7 Noroeste 22 Oeste 0.2 951.2 1 95
2018-11-05 13:00:00 8.5 4 Noroeste 14 Oeste 2.4 951.1 1.5 98
2018-11-05 12:00:00 7.8 7 Sudoeste 17 Sudoeste 5 950.7 1.5 96
2018-11-05 11:00:00 7.5 5 Sudoeste 11 Oeste 3.2 950.2 1.9 96
2018-11-05 10:00:00 7.5 6 Sudoeste 11 Sur 3.6 949.6 1.7 96
2018-11-05 09:00:00 7.7 3 Oeste 11 Sudoeste 1.6 949.2 1.6 96
2018-11-05 08:00:00 7.6 5 Sudoeste 16 Sudoeste 0 948.3 1 95
2018-11-05 07:00:00 7.6 6 Sudoeste 18 Sur 1 947.9 0.6 95
2018-11-05 06:00:00 7.8 8 Sudoeste 18 Sur 0 947.6 0.1 94
2018-11-05 05:00:00 7.8 4 Sudoeste 17 Sudoeste 0.4 947.3 -0.7 94
2018-11-05 04:00:00 7.9 8 Sudoeste 17 Sudoeste 0 947.3 -1.1 94
2018-11-05 03:00:00 8.1 5 Sudoeste 10 Sur 0 947.5 -1 91
2018-11-05 02:00:00 8.7 2 Sur 12 Sur 1.2 948 -0.3 94
2018-11-05 01:00:00 9 5 Sudoeste 11 Sudoeste 1 948.4 1.1 92
2018-11-05 00:00:00 9.3 4 Oeste 21 Oeste 1.2 948.5 1 95
2018-11-04 23:00:00 10.2 13 Oeste 27 Sudeste 1.4 948.3 -0.4 93
2018-11-04 22:00:00 10.5 10 Sur 34 Sur 0.2 947.3 -1.9 91
2018-11-04 21:00:00 10.5 15 Sur 29 Sur 1 947.5 -2.5 92
2018-11-04 20:00:00 10.6 6 Sur 20 Sudoeste 1.6 948.7 -1.7 93
2018-11-04 19:00:00 11 8 Sudoeste 22 Sudoeste 0.2 949.2 -2.1 92
2018-11-04 18:00:00 11.3 8 Sudoeste 29 Sudoeste 0.6 950 -2.3 93
2018-11-04 17:00:00 11.9 10 Sudoeste 23 Sudoeste 0.2 950.4 -3.3 91
2018-11-04 16:00:00 11.7 9 Sudoeste 30 Sudoeste 1.2 951.3 -4.1 92
2018-11-04 15:00:00 12.8 13 Sudoeste 30 Sudoeste 0 952.3 -5 80
2018-11-04 14:00:00 12.1 10 Sur 31 Sudeste 0 953.7 -4.5 79
2018-11-04 13:00:00 11.1 13 Sur 31 Sudoeste 0 955.4 -3.4 84
2018-11-04 12:00:00 10.3 6 Sur 23 Sudeste 0.4 957.3 -2.1 91
2018-11-04 11:00:00 10 8 Sudoeste 22 Sur 0.4 958.2 -1.7 94
2018-11-04 10:00:00 9.8 9 Sur 23 Sudoeste 0.4 958.8 -2 93
2018-11-04 09:00:00 9.7 8 Sudoeste 19 Sudoeste 0 959.4 -2.3 94
2018-11-04 08:00:00 9.5 5 Sudoeste 15 Sudoeste 0.2 959.9 -1.9 94
2018-11-04 07:00:00 9.8 4 Sudoeste 16 Sudoeste 0 960.8 -2.3 91
2018-11-04 06:00:00 9.8 6 Sudoeste 18 Sudoeste 0 961.7 -2.4 91
2018-11-04 05:00:00 9.7 5 Sur 18 Sudoeste 0 961.8 -3.7 90
2018-11-04 04:00:00 9.4 3 Oeste 12 Sur 0 963.1 -3 92
2018-11-04 03:00:00 9.7 4 Sudoeste 14 Sudoeste 0 964.1 -2.8 90
2018-11-04 02:00:00 9.8 4 Sudoeste 9 Sudoeste 0 965.5 -2 93
2018-11-04 01:00:00 9.8 5 Sur 10 Sur 0 966.1 -1.4 93
2018-11-04 00:00:00 9.8 3 Sudoeste 8 Oeste 0 966.9 -1.1 94
2018-11-03 23:00:00 9.1 2 Sudoeste 9 Oeste 0 967.5 -1.2 95
2018-11-03 22:00:00 9.6 3 Sur 5 Oeste 0 967.5 -1.3 87
2018-11-03 21:00:00 11.1 5 Sur 10 Sudoeste 0 968 -0.9 86
2018-11-03 20:00:00 11.7 2 Sur 3 Sur 0 968.7 -0.4 88
2018-11-03 19:00:00 11.8 0 Calma 5 Noroeste 0 968.8 -0.5 85
2018-11-03 18:00:00 12.3 0 Calma 9 Sudoeste 0 968.9 -0.9 82
2018-11-03 17:00:00 13.2 3 Noroeste 11 Noroeste 0 969.1 -1.4 80
2018-11-03 16:00:00 13.6 3 Sudoeste 10 Oeste 0 969.3 -1.9 74
2018-11-03 15:00:00 13.4 3 Oeste 12 Oeste 0 969.8 -2.1 77
2018-11-03 14:00:00 12.7 6 Oeste 11 Oeste 0 970.5 -1.8 79
2018-11-03 13:00:00 12.1 3 Sudoeste 10 Sudoeste 0 971.2 -1.2 84
2018-11-03 12:00:00 11.5 3 Sur 9 Oeste 0 971.9 -0.4 90
2018-11-03 11:00:00 10.9 4 Sur 11 Sudoeste 0 972.3 -0.1 92
2018-11-03 10:00:00 10.4 3 Sur 14 Sudoeste 0 972.4 -0.4 94
2018-11-03 09:00:00 10.3 4 Sur 10 Sur 0 972.3 -0.7 95
2018-11-03 08:00:00 10.1 3 Sur 13 Sur 0 972.4 -0.9 95
2018-11-03 07:00:00 10.2 2 Sur 12 Sur 0 972.8 -0.9 93
2018-11-03 06:00:00 10.6 4 Sur 10 Sudoeste 0 973 -1.1 93
2018-11-03 05:00:00 11.1 4 Sudeste 10 Sur 0 973.3 -1 91
2018-11-03 04:00:00 11.7 0 Calma 4 Nordeste 0 973.7 -0.8 92
2018-11-03 03:00:00 11.8 2 Sudoeste 4 Sudoeste 0 974.1 -0.5 93
2018-11-03 02:00:00 11.9 3 Sudoeste 5 Oeste 0 974.3 -0.5 92
2018-11-03 01:00:00 12 3 Oeste 6 Oeste 0 974.5 -0.1 92
2018-11-03 00:00:00 12.2 0 Calma 11 Nordeste 0 974.6 0.4 92
2018-11-02 23:00:00 12.3 3 Nordeste 10 Este 0 974.8 0.6 92
2018-11-02 22:00:00 12.3 4 Nordeste 9 Nordeste 0 974.6 0.7 92
2018-11-02 21:00:00 12.5 3 Nordeste 12 Nordeste 0 974.2 1.1 93
2018-11-02 20:00:00 13 2 Norte 6 Norte 0 974.2 1.5 92
2018-11-02 19:00:00 13.6 2 Norte 14 Nordeste 0 973.9 1.5 91
2018-11-02 18:00:00 15.4 5 Nordeste 12 Este 0 973.1 0.7 82
2018-11-02 17:00:00 18 4 Noroeste 11 Nordeste 0 972.7 0.1 69
2018-11-02 16:00:00 18.5 6 Oeste 12 Sudoeste 0 972.4 -0.2 69
2018-11-02 15:00:00 17.1 3 Noroeste 9 Sudoeste 0 972.4 -0.1 72
2018-11-02 14:00:00 16.2 4 Oeste 11 Oeste 0 972.6 0.6 80
2018-11-02 13:00:00 14.9 5 Oeste 9 Oeste 0 972.6 1 86
2018-11-02 12:00:00 14.2 2 Noroeste 6 Norte 0 972.5 1.9 89
2018-11-02 11:00:00 13.8 2 Noroeste 6 Oeste 0.2 972 2 93
2018-11-02 10:00:00 13.1 2 Norte 10 Oeste 0 971.6 2.4 96
2018-11-02 09:00:00 12.8 3 Oeste 7 Oeste 0 970.6 2.1 96
2018-11-02 08:00:00 12.8 2 Oeste 3 Oeste 0 970 2.1 95
2018-11-02 07:00:00 12.5 3 Sudoeste 8 Oeste 0 969.2 1.7 96
2018-11-02 06:00:00 12.4 6 Oeste 13 Sudoeste 0 968.5 1.6 96
2018-11-02 05:00:00 12.4 7 Oeste 12 Oeste 0 967.9 1.4 97
2018-11-02 04:00:00 12.6 5 Oeste 17 Oeste 0 967.5 1.2 97
2018-11-02 03:00:00 12.5 8 Oeste 19 Sudoeste 0 966.9 1 97
2018-11-02 02:00:00 12.3 8 Sudoeste 17 Sur 0.2 966.5 0.6 97
2018-11-02 01:00:00 11.9 8 Sudoeste 22 Sur 0.2 966.3 0.9 97
2018-11-02 00:00:00 10.8 9 Sudoeste 19 Sudoeste 0.6 965.9 0.4 97
2018-11-01 23:00:00 10.5 9 Sudoeste 23 Sur 0.2 965.9 1.1 97
2018-11-01 22:00:00 10.2 10 Sudoeste 28 Sur 0.2 965.4 0.5 96
2018-11-01 21:00:00 10 13 Sudoeste 34 Sudoeste 0.4 965.5 0.6 95
2018-11-01 20:00:00 9.6 10 Sudoeste 33 Sur 0.2 964.8 0.2 94
2018-11-01 19:00:00 9.4 10 Sudoeste 22 Sur 0.2 964.9 0.3 94
2018-11-01 18:00:00 9.6 7 Sur 21 Sudoeste 0.2 964.9 0.3 91
2018-11-01 17:00:00 10.6 12 Sudoeste 24 Oeste 0 964.6 0.2 82
2018-11-01 16:00:00 11.1 11 Sudoeste 24 Sudoeste 0 964.6 0.1 77
2018-11-01 15:00:00 11.5 9 Sudoeste 22 Sudoeste 0 964.6 -0.7 80
2018-11-01 14:00:00 11.1 11 Sudoeste 23 Sur 0 964.4 -0.5 79
2018-11-01 13:00:00 10.5 10 Sudoeste 22 Sudoeste 0 964.5 0.6 83
2018-11-01 12:00:00 9.7 8 Sudoeste 20 Sur 0 965.3 1.2 86
2018-11-01 11:00:00 8.6 6 Sudoeste 14 Sur 0 964.9 1.9 91
2018-11-01 10:00:00 8.2 6 Sudoeste 15 Sudoeste 0 963.9 1.4 92
2018-11-01 09:00:00 7.1 3 Sur 8 Sur 0 964.1 2 95
2018-11-01 08:00:00 6.6 3 Sudoeste 6 Sur 0 963 1.6 94
2018-11-01 07:00:00 6.9 3 Sur 8 Sudoeste 0 962.5 1.7 94
2018-11-01 06:00:00 7 4 Sudoeste 8 Sudoeste 0 962.1 1.8 96
2018-11-01 05:00:00 6.8 5 Sudoeste 7 Sudoeste 0 961.4 1.5 96
2018-11-01 04:00:00 7.8 0 Calma 4 Sudoeste 0 960.8 1 93
2018-11-01 03:00:00 7.9 0 Calma 10 Noroeste 0.4 960.3 1.2 95
2018-11-01 02:00:00 7.9 2 Oeste 9 Noroeste 0.2 959.9 1 95
2018-11-01 01:00:00 8 2 Sudoeste 4 Sudoeste 0 959.8 2 95
2018-11-01 00:00:00 7.2 3 Sudeste 5 Sudeste 0 959.1 1.8 96
2018-10-31 23:00:00 6.9 2 Sur 5 Sur 0 958.9 2.6 94
2018-10-31 22:00:00 6.6 3 Sur 7 Sur 0 957.8 2.1 93
2018-10-31 21:00:00 7.3 2 Sudoeste 4 Oeste 0 957.3 2.9 89
2018-10-31 20:00:00 8.8 2 Sudoeste 4 Nordeste 0 956.3 2.5 86
2018-10-31 19:00:00 10 3 Nordeste 8 Nordeste 0 955.7 2.5 82
2018-10-31 18:00:00 11 0 Calma 5 Nordeste 0 954.4 1.5 71
2018-10-31 17:00:00 11.4 3 Este 12 Este 0 953.8 1.3 70
2018-10-31 16:00:00 11.7 7 Nordeste 11 Este 0 953.2 0.5 65
2018-10-31 15:00:00 12.4 3 Sudeste 13 Oeste 0 952.9 0.3 63
2018-10-31 14:00:00 13.3 4 Noroeste 13 Sur 0 952.5 0.3 58
2018-10-31 13:00:00 11.7 6 Sudoeste 14 Sudoeste 0 952.7 1 67
2018-10-31 12:00:00 11.3 5 Sudoeste 18 Oeste 0 952.6 1.7 71
2018-10-31 11:00:00 9.8 7 Sudoeste 21 Sudoeste 0 952.2 1.3 82
2018-10-31 10:00:00 9.2 3 Sur 13 Sur 0 951.7 0.5 85
2018-10-31 09:00:00 7 4 Sudeste 11 Sur 0 950.9 -0.4 93
2018-10-31 08:00:00 6.2 4 Sur 9 Sudeste 0 950.9 -0.3 94
2018-10-31 07:00:00 7.3 5 Sudoeste 12 Oeste 0 951.2 0 94
2018-10-31 06:00:00 7.8 6 Sudoeste 10 Sudoeste 0 951.3 0 96
2018-10-31 05:00:00 7.9 7 Sudoeste 14 Sudoeste 0.2 951.2 -0.2 96
2018-10-31 04:00:00 7.8 6 Sudoeste 14 Sudoeste 0 951.2 -0.3 97
2018-10-31 03:00:00 7.6 8 Sudoeste 16 Sudoeste 1.2 951.3 -0.3 97
2018-10-31 02:00:00 7.6 6 Sudoeste 14 Sur 0.2 951.4 0.1 95
2018-10-31 01:00:00 7.6 6 Sudoeste 15 Sur 0 951.5 0.2 95
2018-10-31 00:00:00 7.7 6 Sudoeste 14 Sudoeste 0 951.6 0.8 94
2018-10-30 23:00:00 7.7 4 Sudoeste 14 Sur 0 951.3 0.7 93
2018-10-30 22:00:00 7.5 5 Sudoeste 11 Sur 0 951.3 1.3 94
2018-10-30 21:00:00 7.3 4 Sur 12 Sudoeste 0 950.8 1.2 93
2018-10-30 20:00:00 7.6 5 Sudoeste 9 Sudoeste 0 950.6 1.5 93
2018-10-30 19:00:00 8.1 3 Sudoeste 10 Oeste 0 950 1.3 93
2018-10-30 18:00:00 8.7 5 Sudoeste 10 Sudoeste 0.4 949.6 1.2 90
2018-10-30 17:00:00 9.2 3 Oeste 7 Oeste 0.2 949.1 1 89
2018-10-30 16:00:00 9.4 4 Norte 11 Oeste 0.6 948.7 0.7 86
2018-10-30 15:00:00 9.3 4 Oeste 13 Sudoeste 0 948.4 0.4 89
2018-10-30 14:00:00 9.5 10 Oeste 15 Oeste 0.2 948.1 0.6 87
2018-10-30 13:00:00 9.3 8 Sudoeste 14 Sudoeste 0 948 1 85
2018-10-30 12:00:00 8.7 7 Sudoeste 13 Sudoeste 0 948 1.8 90
2018-10-30 11:00:00 8 5 Sudoeste 12 Sudoeste 0.2 947.5 2.3 93
2018-10-30 10:00:00 7.5 4 Sudoeste 12 Sudoeste 0 947 2.3 93
2018-10-30 09:00:00 6.8 5 Sudoeste 15 Sudoeste 0.8 946.2 2 95
2018-10-30 08:00:00 6.8 5 Sudoeste 15 Sudoeste 0.4 945.2 1.5 95
2018-10-30 07:00:00 6.5 9 Sudoeste 19 Sudoeste 0.4 944.7 0.8 95
2018-10-30 06:00:00 6.6 9 Sur 27 Sudoeste 0 944.2 -0.2 93
2018-10-30 05:00:00 6.4 11 Sudoeste 28 Sur 0 943.7 -0.7 91
2018-10-30 04:00:00 6.1 10 Sur 26 Sur 0.4 943.9 -1.5 92
2018-10-30 03:00:00 6.2 10 Sudoeste 32 Sur 1.6 944.4 -2.1 93
2018-10-30 02:00:00 6 12 Sur 28 Sur 0.4 944.4 -3.7 92
2018-10-30 01:00:00 5.6 10 Sur 36 Sur 0.8 945.4 -3.9 92
2018-10-30 00:00:00 5.3 11 Sur 28 Sur 1 946.5 -3.8 93
2018-10-29 23:00:00 5.6 8 Sur 29 Sur 0.8 948.1 -3.2 92
2018-10-29 22:00:00 5.8 11 Sur 25 Sur 0.6 949.3 -2.6 92
2018-10-29 21:00:00 6.1 7 Sudoeste 21 Sudoeste 0.4 950.3 -2.4 91
2018-10-29 20:00:00 6.4 8 Sudoeste 17 Sudoeste 0 951.3 -2 89
2018-10-29 19:00:00 6.5 8 Sudoeste 18 Sudoeste 0 951.9 -1.9 88
2018-10-29 18:00:00 6.9 3 Sudoeste 23 Oeste 0.2 952.7 -1.9 89
2018-10-29 17:00:00 8.1 16 Oeste 27 Oeste 0 953.3 -2.3 79
2018-10-29 16:00:00 8.2 7 Oeste 17 Noroeste 1.6 953.8 -2.8 86
2018-10-29 15:00:00 8.6 8 Sudoeste 23 Sudoeste 0 954.6 -3.2 77
2018-10-29 14:00:00 9.1 13 Oeste 23 Oeste 0 955.6 -2.5 77
2018-10-29 13:00:00 7.9 10 Sudoeste 17 Oeste 0 956.6 -2 88
2018-10-29 12:00:00 6.4 8 Sudoeste 13 Sudoeste 0 957.8 -0.7 92
2018-10-29 11:00:00 5.8 6 Sudoeste 12 Oeste 0.2 958.1 -0.4 90
2018-10-29 10:00:00 4.6 5 Sudoeste 12 Sudoeste 0.2 958.6 0.1 95
2018-10-29 09:00:00 3.5 0 Calma 10 Oeste 0 958.5 -0.3 96
2018-10-29 08:00:00 2.5 3 Sudeste 6 Sudoeste 0.2 958.5 -0.2 98
2018-10-29 07:00:00 2.9 3 Sudoeste 7 Sur 0.2 958.5 -0.9 95
2018-10-29 06:00:00 3.8 2 Sudoeste 7 Sudeste 0.2 958.8 -0.7 95
2018-10-29 05:00:00 4 2 Sur 13 Oeste 0.8 958.7 -1 96
2018-10-29 04:00:00 4 2 Sudoeste 13 Oeste 2.8 959.4 -1 96
2018-10-29 03:00:00 4.1 4 Oeste 9 Sudeste 1 959.5 -0.8 97
2018-10-29 02:00:00 4.2 3 Sudoeste 8 Noroeste 0.2 959.7 -1.1 96
2018-10-29 01:00:00 4 3 Noroeste 11 Oeste 0.6 960.4 -0.5 98
2018-10-29 00:00:00 3.7 8 Oeste 14 Oeste 0.2 960.3 0.4 97
2018-10-28 23:00:00 3.9 3 Oeste 13 Nordeste 1.4 960.8 0.3 97
2018-10-28 22:00:00 3.5 4 Norte 12 Sudoeste 1 960.9 0.9 97
2018-10-28 21:00:00 3.4 4 Sudoeste 21 Este 1.8 959.9 0.7 95
2018-10-28 20:00:00 3.8 10 Nordeste 20 Nordeste 3.8 960.5 0.3 94
2018-10-28 19:00:00 4.1 6 Norte 29 Oeste 1.6 960 0.1 97
2018-10-28 18:00:00 3.9 6 Sudoeste 15 Sudoeste 2.2 959.2 -1.1 94
2018-10-28 17:00:00 4.7 4 Noroeste 10 Este 0.2 960.2 0.5 93
2018-10-28 16:00:00 3.7 8 Este 21 Nordeste 1.8 959.9 0.1 92
2018-10-28 15:00:00 4.3 12 Nordeste 33 Este 1 960.3 0.8 90
2018-10-28 14:00:00 5.9 8 Nordeste 17 Nordeste 0.6 959.7 -0.2 90
2018-10-28 13:00:00 5.5 4 Norte 27 Este 0.6 959.8 -0.1 90
2018-10-28 12:00:00 6.1 6 Nordeste 27 Este 0.2 959.5 0.5 83
2018-10-28 11:00:00 3.5 7 Nordeste 18 Nordeste 2.8 959.9 1.2 94
2018-10-28 10:00:00 4.3 4 Norte 11 Norte 0.4 959.9 1.7 96
2018-10-28 09:00:00 3.2 3 Noroeste 10 Norte 0.8 959 0.8 97
2018-10-28 08:00:00 2.9 4 Este 21 Norte 2 958.7 0.9 97
2018-10-28 07:00:00 2.9 5 Norte 22 Norte 1.6 958.2 0.8 96
2018-10-28 06:00:00 2.7 6 Nordeste 30 Nordeste 2.2 958.2 0.2 96
2018-10-28 05:00:00 2.6 2 Nordeste 6 Norte 0.4 957.8 0 98
2018-10-28 04:00:00 2 2 Sur 9 Sudoeste 2 957.4 -0.7 96
2018-10-28 03:00:00 2.3 5 Sudeste 15 Este 2.2 958 -0.2 93
2018-10-28 02:00:00 3.1 0 Calma 17 Este 1 957.8 -0.6 94
2018-10-28 01:00:00 4 0 Calma 8 Este 0.2 958.2 -0.3 96
2018-10-28 00:00:00 3.8 0 Calma 5 Sudoeste 0.4 958.4 -0.6 96
2018-10-27 23:00:00 3.7 3 Oeste 12 Sudoeste 0.6 958.4 -0.9 96
2018-10-27 22:00:00 3.8 5 Oeste 8 Oeste 0.6 958.5 -1 96
2018-10-27 21:00:00 3.7 0 Calma 7 Norte 1.8 959 -1.3 95
2018-10-27 20:00:00 3.8 2 Sudeste 8 Oeste 0.4 959.3 -1.3 95
2018-10-27 19:00:00 4.1 3 Sudoeste 25 Este 2.2 959.5 -2.4 92
2018-10-27 18:00:00 4.9 9 Este 31 Este 0.2 960.3 -2.5 89
2018-10-27 17:00:00 8 5 Nordeste 17 Este 0 960.6 -3.3 79
2018-10-27 16:00:00 6.7 4 Norte 30 Norte 0.8 961.9 -3.1 89
2018-10-27 15:00:00 7.1 3 Noroeste 15 Noroeste 1.2 962.8 -2.3 91
2018-10-27 14:00:00 6.2 6 Nordeste 31 Norte 1.2 963.9 -1.7 86
2018-10-27 13:00:00 6.7 3 Noroeste 22 Norte 1 965 -0.8 90
2018-10-27 12:00:00 7.1 5 Norte 19 Oeste 0 965.1 -0.5 90
2018-10-27 11:00:00 6.3 4 Norte 10 Este 0.4 965.6 -0.6 92
2018-10-27 10:00:00 5 3 Norte 16 Noroeste 1.6 965.8 -0.5 96
2018-10-27 09:00:00 5.1 0 Calma 15 Sudeste 0.4 965.6 -0.5 91
2018-10-27 08:00:00 5.1 3 Norte 10 Norte 0 966.2 -0.3 94
2018-10-27 07:00:00 4.9 2 Este 8 Norte 0 966.3 -0.6 92
2018-10-27 06:00:00 5.4 3 Norte 10 Norte 0 966.1 -0.6 91
2018-10-27 05:00:00 6.8 2 Noroeste 23 Nordeste 0.2 966.5 -0.4 90
2018-10-27 04:00:00 7.9 5 Nordeste 18 Este 0 966.9 0.2 87
2018-10-27 03:00:00 7.8 5 Nordeste 21 Nordeste 0 966.7 0 88
2018-10-27 02:00:00 8.4 8 Nordeste 27 Nordeste 0 966.9 0.3 85
2018-10-27 01:00:00 9.4 9 Nordeste 28 Nordeste 0 966.7 0.4 89
2018-10-27 00:00:00 10 7 Nordeste 24 Nordeste 0 966.7 0.5 93
2018-10-26 23:00:00 10.8 9 Nordeste 26 Nordeste 0 966.6 1.1 86
2018-10-26 22:00:00 10.7 10 Nordeste 24 Nordeste 0 966.3 1.5 89
2018-10-26 21:00:00 10.9 6 Nordeste 27 Este 0 966.2 1.6 91
2018-10-26 20:00:00 11.5 10 Nordeste 28 Nordeste 0 965.5 1.3 93
2018-10-26 19:00:00 13.7 5 Norte 22 Nordeste 0 964.8 0.5 83
2018-10-26 18:00:00 14.3 7 Nordeste 33 Nordeste 0 964.6 0.1 77
2018-10-26 17:00:00 15.3 12 Nordeste 31 Nordeste 0 964.2 -0.8 71
2018-10-26 16:00:00 15.3 10 Nordeste 31 Nordeste 0 964.3 -0.8 73
2018-10-26 15:00:00 15.8 18 Nordeste 37 Nordeste 0 964.5 -0.3 73
2018-10-26 14:00:00 15.1 14 Nordeste 27 Este 0 965 0.5 79
2018-10-26 13:00:00 12.9 6 Nordeste 18 Este 0 965.1 0.9 92
2018-10-26 12:00:00 12 6 Nordeste 12 Nordeste 0 964.8 1 96
2018-10-26 11:00:00 10.9 4 Nordeste 10 Nordeste 0 964.5 0.4 99
2018-10-26 10:00:00 10.1 3 Nordeste 13 Nordeste 0 964.2 0.1 99
2018-10-26 09:00:00 9.3 5 Este 11 Este 0 963.8 -0.1 100
2018-10-26 08:00:00 8 4 Sudeste 8 Sudeste 0 964.1 0.1 99
2018-10-26 07:00:00 8 0 Calma 6 Sudeste 0 964.1 -0.4 98
2018-10-26 06:00:00 7.7 3 Sudeste 5 Sudeste 0 963.9 -0.8 98
2018-10-26 05:00:00 6.9 0 Calma 3 Sur 0 964 -1.5 95
2018-10-26 04:00:00 7.2 0 Calma 4 Sudoeste 0 964.5 -0.9 93
2018-10-26 03:00:00 7.1 0 Calma 4 Sudeste 0 964.7 -1 94
2018-10-26 02:00:00 7.5 2 Sudoeste 6 Sudeste 0 965.5 -0.2 92
2018-10-26 01:00:00 8 4 Sudeste 6 Sudeste 0 965.4 -0.3 96
2018-10-26 00:00:00 8.1 3 Sudoeste 4 Sudoeste 0 965.7 0 93
2018-10-25 23:00:00 9.1 0 Calma 5 Sudeste 0 965.7 -0.1 91
2018-10-25 22:00:00 10.3 4 Sudeste 6 Sudeste 0 965.7 0.1 90
2018-10-25 21:00:00 12 2 Oeste 4 Sur 0 965.7 -0.1 86
2018-10-25 20:00:00 14.8 0 Calma 5 Nordeste 0 965.8 -0.2 80
2018-10-25 19:00:00 17.5 5 Nordeste 9 Nordeste 0 965.6 -0.8 73
2018-10-25 18:00:00 19.8 2 Norte 7 Norte 0 965.8 -1.2 56
2018-10-25 17:00:00 20.9 3 Norte 7 Este 0 966 -1.8 56
2018-10-25 16:00:00 20.6 4 Noroeste 10 Noroeste 0 966.4 -2.3 58
2018-10-25 15:00:00 18.3 4 Nordeste 8 Norte 0 967 -2.2 64
2018-10-25 14:00:00 14.9 4 Nordeste 7 Nordeste 0 967.8 -1.7 78
2018-10-25 13:00:00 10.6 3 Noroeste 5 Sudoeste 0 968.7 -0.9 93
2018-10-25 12:00:00 7.9 2 Noroeste 4 Sudeste 0 969.2 0 98
2018-10-25 11:00:00 6.4 3 Sudoeste 4 Sudoeste 0 969.5 0.3 98
2018-10-25 10:00:00 5.6 0 Calma 7 Sudoeste 0 969.6 0.3 96
2018-10-25 09:00:00 5.4 4 Sudoeste 8 Sudoeste 0 969.2 -0.3 96
2018-10-25 08:00:00 5.9 2 Sudeste 5 Sudeste 0 969.2 -0.7 97
2018-10-25 07:00:00 6 3 Sudeste 6 Sudeste 0 969.3 -1.1 98
2018-10-25 06:00:00 6.5 2 Sudeste 6 Oeste 0 969.5 -1.6 96
2018-10-25 05:00:00 7.2 0 Calma 7 Sudoeste 0 969.9 -1.6 96
2018-10-25 04:00:00 7.7 4 Sudeste 8 Sudeste 0 970.4 -1.3 97
2018-10-25 03:00:00 8 3 Sudoeste 10 Sudoeste 0 971.1 -1.1 97
2018-10-25 02:00:00 8.7 3 Sur 5 Sudeste 0 971.5 -0.7 96
2018-10-25 01:00:00 9 0 Calma 6 Sudeste 0 971.7 -0.5 97
2018-10-25 00:00:00 8.6 4 Sudeste 7 Sudeste 0 972.2 -0.2 96
2018-10-24 23:00:00 8.5 0 Calma 5 Sudeste 0 972.2 -0.3 89
2018-10-24 22:00:00 10 2 Sur 4 Oeste 0 972.2 -0.3 86
2018-10-24 21:00:00 11.9 0 Calma 9 Este 0 972.4 -0.4 86
2018-10-24 20:00:00 13.6 3 Nordeste 12 Nordeste 0 972.5 -0.5 83
2018-10-24 19:00:00 16.5 2 Norte 12 Nordeste 0 972.5 -1.1 76
2018-10-24 18:00:00 19.3 8 Nordeste 15 Nordeste 0 972.8 -1.6 60
2018-10-24 17:00:00 21 5 Nordeste 15 Nordeste 0 973 -2.2 54
2018-10-24 16:00:00 20.7 7 Nordeste 14 Nordeste 0 973.6 -2.6 53
2018-10-24 15:00:00 18.4 4 Este 9 Oeste 0 974.4 -2.1 66
2018-10-24 14:00:00 15.6 3 Oeste 7 Oeste 0 975.2 -1.3 73
2018-10-24 13:00:00 11.6 3 Sudoeste 11 Nordeste 0 976.2 0 89
2018-10-24 12:00:00 10.4 2 Sudeste 7 Sudoeste 0 976.5 0.5 94
2018-10-24 11:00:00 9.6 5 Sudoeste 12 Oeste 0 976.5 0.5 96
2018-10-24 10:00:00 9.3 2 Sudeste 8 Sudeste 0 976.2 0.1 97
2018-10-24 09:00:00 9.5 5 Sudeste 8 Sudeste 0 976 -0.1 95
2018-10-24 08:00:00 10.5 4 Sudeste 8 Sudeste 0 976 -0.2 94
2018-10-24 07:00:00 10.7 6 Este 12 Nordeste 0 976.1 -0.3 93
2018-10-24 06:00:00 11.1 5 Nordeste 12 Nordeste 0 976.1 -0.7 93
2018-10-24 05:00:00 11.2 5 Nordeste 17 Nordeste 0 976.2 -0.5 93
2018-10-24 04:00:00 11.2 9 Nordeste 18 Nordeste 0 976.4 -0.3 94
2018-10-24 03:00:00 11.3 4 Nordeste 14 Nordeste 0 976.8 0 94
2018-10-24 02:00:00 11.5 5 Nordeste 13 Nordeste 0 976.7 0.1 95
2018-10-24 01:00:00 11.4 4 Nordeste 9 Este 0 976.7 0.7 94
2018-10-24 00:00:00 12 3 Nordeste 19 Nordeste 0 976.8 1 92
2018-10-23 23:00:00 11.9 6 Nordeste 15 Este 0 976.6 0.8 96
2018-10-23 22:00:00 11.4 2 Norte 8 Nordeste 0 976 0.9 92
2018-10-23 21:00:00 11.8 3 Nordeste 12 Nordeste 0 975.8 0.9 91
2018-10-23 20:00:00 13.3 3 Nordeste 17 Nordeste 0 975.8 1.1 86
2018-10-23 19:00:00 14.7 9 Nordeste 32 Nordeste 0 975.1 0.1 81
2018-10-23 18:00:00 16.8 12 Nordeste 26 Nordeste 0 974.9 -0.3 74
2018-10-23 17:00:00 18.3 10 Nordeste 26 Este 0 974.7 -0.9 68
2018-10-23 16:00:00 19 7 Nordeste 23 Este 0 975 -0.9 64
2018-10-23 15:00:00 18.9 8 Nordeste 22 Nordeste 0 975.2 -0.9 63
2018-10-23 14:00:00 18.4 9 Nordeste 23 Este 0 975.6 -0.5 65
2018-10-23 13:00:00 17.4 10 Este 25 Este 0 975.9 0.1 65
2018-10-23 12:00:00 16.2 12 Nordeste 19 Nordeste 0 976.1 1.1 67
2018-10-23 11:00:00 14.4 8 Nordeste 19 Nordeste 0 976.1 1.2 73
2018-10-23 10:00:00 11.3 8 Este 13 Este 0 975.8 1 81
2018-10-23 09:00:00 9.2 3 Norte 8 Este 0 975 0.1 85
2018-10-23 08:00:00 10.3 4 Nordeste 14 Este 0 974.9 -0.1 82
2018-10-23 07:00:00 10.8 3 Norte 18 Nordeste 0 974.8 -0.4 80
2018-10-23 06:00:00 11.6 8 Este 17 Este 0 974.9 0.1 73
2018-10-23 05:00:00 12 10 Este 31 Este 0 975 0 76
2018-10-23 04:00:00 12.4 13 Este 28 Nordeste 0 975.2 0.1 83
2018-10-23 03:00:00 12.2 10 Nordeste 20 Nordeste 0 974.8 -0.5 84
2018-10-23 02:00:00 11.6 4 Norte 21 Este 0 975 0.1 88
2018-10-23 01:00:00 11.7 6 Nordeste 35 Nordeste 0 975.1 0.5 83
2018-10-23 00:00:00 11.7 13 Nordeste 33 Este 0 975.3 0.6 84
2018-10-22 23:00:00 12 20 Nordeste 40 Este 0 974.9 0.6 85
2018-10-22 22:00:00 12.2 23 Nordeste 47 Este 0 974.6 1.1 86
2018-10-22 21:00:00 12.6 23 Nordeste 46 Nordeste 0 974.7 1.3 85
2018-10-22 20:00:00 13.5 21 Nordeste 43 Nordeste 0 974.3 0.6 80
2018-10-22 19:00:00 14.7 20 Nordeste 45 Nordeste 0 973.5 -0.2 79
2018-10-22 18:00:00 16.4 15 Nordeste 38 Nordeste 0 973.4 -0.6 75
2018-10-22 17:00:00 18 11 Nordeste 36 Nordeste 0 973.7 -0.4 66
2018-10-22 16:00:00 18.8 12 Nordeste 37 Nordeste 0 973.7 -0.7 63
2018-10-22 15:00:00 18.7 15 Nordeste 39 Nordeste 0 974 -0.1 63
2018-10-22 14:00:00 18.5 13 Nordeste 34 Nordeste 0 974.1 0 60
2018-10-22 13:00:00 17.9 11 Nordeste 25 Nordeste 0 974.4 0.7 66
2018-10-22 12:00:00 16.7 7 Nordeste 20 Nordeste 0 974.1 1.2 67
2018-10-22 11:00:00 13.8 12 Nordeste 23 Nordeste 0 974.1 1.4 82
2018-10-22 10:00:00 12.5 8 Nordeste 17 Nordeste 0 973.7 1.3 89
2018-10-22 09:00:00 11.7 4 Nordeste 15 Norte 0 972.9 0.7 93
2018-10-22 08:00:00 12.7 6 Nordeste 20 Nordeste 0 972.7 0.7 91
2018-10-22 07:00:00 12.9 9 Nordeste 19 Este 0 972.4 0.3 91
2018-10-22 06:00:00 13.3 7 Nordeste 24 Nordeste 0 972.2 0.1 91
2018-10-22 05:00:00 13.4 12 Nordeste 23 Nordeste 0 972 0.1 91
2018-10-22 04:00:00 13.7 8 Nordeste 22 Nordeste 0 972.1 0.3 91
2018-10-22 03:00:00 13.9 11 Nordeste 22 Nordeste 0 972.1 0.6 91
2018-10-22 02:00:00 13.9 9 Nordeste 21 Nordeste 0 971.9 0.7 93
2018-10-22 01:00:00 13.3 4 Nordeste 11 Este 0 971.8 1 94
2018-10-22 00:00:00 13.7 6 Nordeste 16 Este 0 971.5 0.9 93
2018-10-21 23:00:00 14 9 Nordeste 18 Nordeste 0 971.2 1 92
2018-10-21 22:00:00 14.2 8 Nordeste 19 Nordeste 0 970.8 1 91
2018-10-21 21:00:00 14.4 10 Nordeste 31 Nordeste 0 970.6 1.2 92
2018-10-21 20:00:00 14.6 10 Nordeste 25 Nordeste 0 970.2 0.9 91
2018-10-21 19:00:00 15.4 4 Nordeste 18 Nordeste 0 969.8 0.5 87
2018-10-21 18:00:00 17.6 5 Nordeste 18 Nordeste 0 969.4 -0.2 79
2018-10-21 17:00:00 19.5 6 Nordeste 18 Nordeste 0 969.3 -0.6 73
2018-10-21 16:00:00 20.1 9 Nordeste 19 Nordeste 0 969.3 -1.1 70
2018-10-21 15:00:00 21.5 6 Nordeste 18 Este 0 969.6 -1.2 63
2018-10-21 14:00:00 20.3 4 Oeste 9 Noroeste 0 969.9 -0.8 70
2018-10-21 13:00:00 17.3 4 Oeste 9 Oeste 0 970.4 -0.4 78
2018-10-21 12:00:00 13.6 4 Oeste 8 Oeste 0 970.8 0.5 90
2018-10-21 11:00:00 11.1 2 Sudoeste 5 Nordeste 0 970.7 0.7 98
2018-10-21 10:00:00 9.4 2 Este 8 Sudoeste 0 970.8 0.9 98
2018-10-21 09:00:00 8.2 0 Calma 5 Oeste 0 970.3 0.4 97
2018-10-21 08:00:00 8.6 2 Sur 4 Sur 0 970 -0.1 94
2018-10-21 07:00:00 9.1 2 Sudoeste 6 Oeste 0 969.9 -0.4 96
2018-10-21 06:00:00 10 4 Sudeste 9 Este 0 969.9 -0.5 97
2018-10-21 05:00:00 10.1 5 Sudeste 8 Sudeste 0 970.1 -0.4 97
2018-10-21 04:00:00 10.5 0 Calma 10 Este 0 970.3 -0.6 93
2018-10-21 03:00:00 11.1 2 Sudoeste 12 Este 0 970.4 -0.4 96
2018-10-21 02:00:00 11.4 5 Sudoeste 10 Nordeste 0 970.5 0 96
2018-10-21 01:00:00 12.5 0 Calma 7 Norte 0 970.9 0.7 92
2018-10-21 00:00:00 13.3 0 Calma 16 Este 0 970.8 0.6 91
2018-10-20 23:00:00 13.9 6 Nordeste 23 Nordeste 0 970.5 0.7 91
2018-10-20 22:00:00 14.3 12 Nordeste 22 Este 0 970.2 1 89
2018-10-20 21:00:00 14.4 8 Nordeste 19 Este 0 970.2 1.3 90
2018-10-20 20:00:00 14.8 6 Nordeste 19 Nordeste 0 969.8 0.5 88
2018-10-20 19:00:00 15.4 9 Nordeste 24 Nordeste 0 969.2 -0.3 85
2018-10-20 18:00:00 16.7 7 Nordeste 26 Nordeste 0 968.9 -0.9 79
2018-10-20 17:00:00 17.6 12 Nordeste 28 Nordeste 0 969.3 -1.5 74
2018-10-20 16:00:00 19 15 Nordeste 27 Nordeste 0 969.5 -1.8 68
2018-10-20 15:00:00 20 7 Nordeste 26 Nordeste 0 969.8 -1.3 64
2018-10-20 14:00:00 18.5 15 Nordeste 30 Este 0 970.8 -0.3 69
2018-10-20 13:00:00 17.3 17 Nordeste 33 Nordeste 0 971.3 0.8 71
2018-10-20 12:00:00 16.5 13 Nordeste 30 Nordeste 0 971.1 1.3 72
2018-10-20 11:00:00 14.4 4 Sudeste 8 Este 0 971.1 1.4 83
2018-10-20 10:00:00 10.2 2 Sur 7 Sudoeste 0 970.5 1 97
2018-10-20 09:00:00 8.8 3 Oeste 10 Nordeste 0 969.8 0.8 96
2018-10-20 08:00:00 9.6 3 Este 10 Este 0 969.7 0.5 95
2018-10-20 07:00:00 9.4 3 Sudeste 8 Sudeste 0 969.5 0.2 95
2018-10-20 06:00:00 10.1 3 Sudoeste 5 Sudoeste 0 969 -0.3 93
2018-10-20 05:00:00 11.9 3 Oeste 21 Nordeste 0 969.2 -0.4 90
2018-10-20 04:00:00 12.5 10 Nordeste 26 Nordeste 0 969.3 -0.1 91
2018-10-20 03:00:00 13 17 Nordeste 32 Este 0 969.3 -0.2 90
2018-10-20 02:00:00 13.1 13 Nordeste 23 Nordeste 0 969.6 0.2 92
2018-10-20 01:00:00 13.1 12 Nordeste 24 Este 0 969.4 0.7 92
2018-10-20 00:00:00 13.4 8 Nordeste 24 Nordeste 0 969.5 1.2 91
2018-10-19 23:00:00 13.3 11 Nordeste 26 Nordeste 0 969.4 1.6 93
2018-10-19 22:00:00 13.2 8 Nordeste 22 Este 0 968.7 1.7 93
2018-10-19 21:00:00 13.8 6 Nordeste 21 Este 0 968.3 1.6 90
2018-10-19 20:00:00 14.2 5 Nordeste 26 Nordeste 0 967.8 1 90
2018-10-19 19:00:00 15.4 14 Nordeste 42 Nordeste 0 967 0.3 86
2018-10-19 18:00:00 15.9 13 Nordeste 31 Nordeste 0 966.7 -0.1 84
2018-10-19 17:00:00 16.3 11 Nordeste 33 Nordeste 0 966.8 -0.2 85
2018-10-19 16:00:00 17.3 16 Nordeste 36 Nordeste 0 966.7 -0.8 80
2018-10-19 15:00:00 18.1 8 Nordeste 26 Nordeste 0 966.8 -0.8 76
2018-10-19 14:00:00 18.4 13 Nordeste 40 Nordeste 0 967 -0.2 74
2018-10-19 13:00:00 17.1 20 Nordeste 36 Nordeste 0 967.5 1 77
2018-10-19 12:00:00 16.6 9 Nordeste 29 Este 0 967.6 1.6 78
2018-10-19 11:00:00 16.6 5 Norte 27 Este 0 967.2 1.6 81
2018-10-19 10:00:00 13.6 15 Nordeste 35 Nordeste 0 966.5 1.2 91
2018-10-19 09:00:00 11 3 Noroeste 7 Noroeste 0 966 0.2 100
2018-10-19 08:00:00 11.2 2 Oeste 8 Nordeste 0 965.6 -0.6 91
2018-10-19 07:00:00 12.4 3 Norte 16 Nordeste 0 965.3 -1.4 93
2018-10-19 06:00:00 13.3 7 Nordeste 31 Este 0 965.8 -0.8 90
2018-10-19 05:00:00 13.5 7 Nordeste 25 Este 0 966.2 -0.4 92
2018-10-19 04:00:00 13.9 5 Nordeste 23 Este 0 966.7 0.5 90
2018-10-19 03:00:00 13.8 9 Nordeste 29 Este 0 966.6 0.1 92
2018-10-19 02:00:00 13.3 9 Nordeste 27 Nordeste 0 966.6 0.6 91
2018-10-19 01:00:00 13.1 12 Nordeste 25 Este 0 966.2 0.6 91
2018-10-19 00:00:00 12.9 6 Nordeste 21 Nordeste 0 966.5 1 93
2018-10-18 23:00:00 12.9 5 Nordeste 26 Este 0 966 1.3 91
2018-10-18 22:00:00 13.3 11 Nordeste 26 Nordeste 0 965.6 1.4 90
2018-10-18 21:00:00 13.4 8 Nordeste 21 Nordeste 0 965.5 1.2 90
2018-10-18 20:00:00 14.1 5 Norte 22 Nordeste 0 964.7 0.4 88
2018-10-18 19:00:00 15.1 10 Nordeste 30 Nordeste 0 964.2 -0.5 85
2018-10-18 18:00:00 15.9 11 Nordeste 33 Nordeste 0 964.3 -0.7 81
2018-10-18 17:00:00 16.6 16 Nordeste 34 Nordeste 0 964.3 -0.8 79
2018-10-18 16:00:00 16.7 15 Nordeste 32 Nordeste 0 964.7 -0.8 79
2018-10-18 15:00:00 15.5 13 Nordeste 49 Nordeste 0 965 -0.5 84
2018-10-18 14:00:00 16 13 Nordeste 29 Nordeste 0 965.1 0 80
2018-10-18 13:00:00 16 6 Nordeste 29 Nordeste 0 965.5 0.9 80
2018-10-18 12:00:00 14.1 11 Nordeste 31 Nordeste 0 965.5 1.6 87
2018-10-18 11:00:00 13.2 11 Nordeste 28 Nordeste 0 965.1 1.7 92
2018-10-18 10:00:00 12.8 10 Nordeste 26 Nordeste 0 964.6 1.7 95
2018-10-18 09:00:00 12.6 10 Nordeste 25 Este 0.2 963.9 1.4 96
2018-10-18 08:00:00 12.9 13 Nordeste 27 Nordeste 0 963.4 0.9 96
2018-10-18 07:00:00 12.5 13 Este 24 Nordeste 0 962.9 0.5 95
2018-10-18 06:00:00 12.2 10 Nordeste 26 Nordeste 0 962.5 0 96
2018-10-18 05:00:00 12.3 15 Nordeste 31 Nordeste 0 962.5 -0.1 97
2018-10-18 04:00:00 11.8 13 Nordeste 23 Nordeste 0 962.4 -0.6 97
2018-10-18 03:00:00 11.8 5 Nordeste 18 Nordeste 0.2 962.5 -0.6 96
2018-10-18 02:00:00 11.8 2 Nordeste 10 Nordeste 0.4 962.6 -0.7 96
2018-10-18 01:00:00 11.5 4 Nordeste 10 Nordeste 0.4 963 -0.3 97
2018-10-18 00:00:00 11.6 3 Nordeste 5 Nordeste 0.4 963.1 0 96